createdAt,value
2022-11-16T00:02:18.713Z,22.87
2022-11-16T00:04:45.613Z,22.87
2022-11-16T00:07:12.359Z,24.93
2022-11-16T00:09:39.263Z,35.33
2022-11-16T00:12:08.811Z,33.63
2022-11-16T00:14:36.249Z,33.53
2022-11-16T00:17:04.254Z,30.07
2022-11-16T00:19:31.330Z,29.73
2022-11-16T00:21:58.322Z,24.07
2022-11-16T00:24:25.401Z,16.13
2022-11-16T00:26:54.626Z,16.07
2022-11-16T00:29:24.347Z,16.80
2022-11-16T00:31:51.274Z,14.33
2022-11-16T00:34:18.587Z,15.60
2022-11-16T00:36:45.974Z,15.63
2022-11-16T00:39:16.954Z,16.33
2022-11-16T00:41:44.841Z,19.20
2022-11-16T00:44:12.270Z,20.03
2022-11-16T00:46:38.958Z,21.93
2022-11-16T00:49:05.996Z,21.77
2022-11-16T00:51:33.979Z,20.60
2022-11-16T00:54:01.331Z,18.77
2022-11-16T00:56:28.062Z,18.03
2022-11-16T00:58:54.746Z,17.83
2022-11-16T01:01:21.810Z,17.97
2022-11-16T01:03:48.550Z,17.57
2022-11-16T01:06:16.475Z,17.97
2022-11-16T01:08:44.492Z,15.13
2022-11-16T01:11:33.037Z,18.43
2022-11-16T01:14:02.734Z,12.70
2022-11-16T01:16:29.661Z,13.17
2022-11-16T01:18:56.736Z,14.43
2022-11-16T01:21:24.246Z,13.40
2022-11-16T01:23:51.497Z,14.40
2022-11-16T01:26:18.495Z,14.30
2022-11-16T01:28:45.331Z,13.97
2022-11-16T01:31:12.386Z,13.03
2022-11-16T01:33:39.348Z,13.90
2022-11-16T01:36:17.365Z,13.57
2022-11-16T01:38:46.042Z,12.60
2022-11-16T01:41:21.411Z,13.87
2022-11-16T01:43:56.207Z,14.40
2022-11-16T01:46:23.930Z,13.15
2022-11-16T01:48:57.515Z,13.70
2022-11-16T01:51:25.263Z,18.47
2022-11-16T01:53:52.232Z,15.90
2022-11-16T01:56:19.423Z,13.53
2022-11-16T01:58:46.808Z,13.07
2022-11-16T02:01:13.548Z,12.80
2022-11-16T02:03:40.354Z,11.80
2022-11-16T02:06:32.383Z,11.13
2022-11-16T02:09:36.471Z,10.80
2022-11-16T02:12:16.984Z,12.40
2022-11-16T02:14:43.574Z,12.13
2022-11-16T02:17:47.630Z,11.87
2022-11-16T02:20:29.483Z,13.07
2022-11-16T02:23:28.866Z,12.73
2022-11-16T02:26:33.755Z,13.57
2022-11-16T02:29:00.389Z,12.30
2022-11-16T02:31:33.782Z,12.13
2022-11-16T02:34:01.946Z,11.30
2022-11-16T02:36:28.631Z,12.60
2022-11-16T02:39:02.994Z,12.37
2022-11-16T02:41:33.962Z,11.77
2022-11-16T02:44:06.478Z,14.40
2022-11-16T02:46:37.901Z,13.27
2022-11-16T02:49:10.536Z,13.27
2022-11-16T02:51:39.987Z,14.57
2022-11-16T02:54:14.923Z,12.13
2022-11-16T03:01:53.556Z,13.17
2022-11-16T03:04:42.219Z,13.07
2022-11-16T03:07:11.228Z,14.97
2022-11-16T03:09:41.341Z,12.87
2022-11-16T03:12:15.713Z,15.63
2022-11-16T03:14:48.698Z,16.90
2022-11-16T03:17:40.777Z,11.83
2022-11-16T03:20:15.839Z,13.37
2022-11-16T03:22:45.895Z,13.17
2022-11-16T03:25:16.494Z,14.13
2022-11-16T03:27:46.312Z,13.83
2022-11-16T03:30:23.204Z,13.63
2022-11-16T03:33:12.044Z,12.70
2022-11-16T03:36:03.794Z,14.37
2022-11-16T03:38:33.760Z,14.87
2022-11-16T03:41:04.136Z,16.03
2022-11-16T03:43:32.389Z,15.10
2022-11-16T03:45:59.297Z,13.23
2022-11-16T03:48:26.244Z,11.87
2022-11-16T03:50:53.241Z,12.93
2022-11-16T03:53:20.143Z,13.53
2022-11-16T03:55:49.977Z,14.03
2022-11-16T03:58:18.690Z,16.70
2022-11-16T04:00:47.601Z,14.57
2022-11-16T04:03:14.852Z,14.70
2022-11-16T04:06:00.487Z,14.83
2022-11-16T04:08:46.038Z,13.17
2022-11-16T04:11:37.928Z,12.50
2022-11-16T04:14:24.409Z,11.70
2022-11-16T04:17:10.373Z,14.77
2022-11-16T04:19:58.287Z,34.13
2022-11-16T04:22:51.743Z,42.97
2022-11-16T04:25:31.006Z,44.90
2022-11-16T04:28:13.661Z,44.20
2022-11-16T04:31:04.973Z,53.50
2022-11-16T04:33:51.294Z,46.57
2022-11-16T04:36:36.895Z,49.97
2022-11-16T04:39:04.574Z,49.07
2022-11-16T04:41:50.184Z,52.37
2022-11-16T04:44:17.343Z,51.97
2022-11-16T04:47:02.625Z,47.70
2022-11-16T04:51:56.094Z,51.27
2022-11-16T04:54:26.353Z,49.57
2022-11-16T04:56:53.078Z,49.23
2022-11-16T04:59:19.807Z,48.03
2022-11-16T05:02:04.981Z,51.43
2022-11-16T05:04:31.571Z,41.20
2022-11-16T05:06:58.477Z,36.57
2022-11-16T05:09:25.391Z,33.33
2022-11-16T05:11:52.278Z,29.73
2022-11-16T05:14:19.028Z,27.87
2022-11-16T05:16:45.840Z,25.50
2022-11-16T05:19:31.178Z,26.93
2022-11-16T05:24:33.573Z,28.27
2022-11-16T05:27:05.317Z,25.83
2022-11-16T05:29:32.947Z,25.37
2022-11-16T05:31:59.796Z,24.57
2022-11-16T05:34:27.429Z,37.47
2022-11-16T05:36:54.754Z,34.07
2022-11-16T05:39:21.786Z,38.60
2022-11-16T05:41:49.107Z,34.97
2022-11-16T05:44:16.259Z,38.10
2022-11-16T05:46:43.995Z,37.17
2022-11-16T05:49:12.141Z,41.00
2022-11-16T05:51:40.972Z,37.17
2022-11-16T05:54:08.209Z,32.90
2022-11-16T05:56:35.531Z,32.10
2022-11-16T05:59:02.922Z,31.27
2022-11-16T06:01:29.680Z,43.57
2022-11-16T06:03:59.069Z,37.57
2022-11-16T06:06:25.794Z,45.63
2022-11-16T06:08:52.569Z,46.90
2022-11-16T06:11:19.462Z,50.23
2022-11-16T06:13:46.303Z,47.50
2022-11-16T06:16:13.172Z,50.17
2022-11-16T06:18:41.611Z,46.23
2022-11-16T06:21:09.287Z,46.03
2022-11-16T06:23:36.018Z,50.80
2022-11-16T06:26:04.178Z,53.03
2022-11-16T06:28:31.181Z,51.78
2022-11-16T06:30:58.118Z,52.72
2022-11-16T06:33:26.195Z,56.00
2022-11-16T06:35:54.370Z,57.15
2022-11-16T06:38:23.399Z,52.88
2022-11-16T06:40:52.157Z,54.83
2022-11-16T06:43:19.544Z,55.83
2022-11-16T06:45:53.711Z,55.85
2022-11-16T06:48:21.164Z,34.90
2022-11-16T06:50:49.824Z,34.80
2022-11-16T06:53:17.588Z,35.88
2022-11-16T06:55:44.496Z,47.03
2022-11-16T06:58:11.460Z,52.97
2022-11-16T07:00:40.940Z,60.15
2022-11-16T07:03:07.674Z,54.35
2022-11-16T07:05:34.429Z,46.92
2022-11-16T07:08:01.107Z,33.20
2022-11-16T07:10:28.246Z,28.98
2022-11-16T07:12:54.936Z,30.73
2022-11-16T07:15:21.969Z,31.35
2022-11-16T07:17:48.708Z,47.42
2022-11-16T07:20:15.783Z,43.30
2022-11-16T07:22:42.478Z,38.05
2022-11-16T07:25:09.558Z,38.03
2022-11-16T07:27:36.228Z,39.67
2022-11-16T07:30:03.911Z,44.55
2022-11-16T07:32:31.228Z,51.90
2022-11-16T07:34:59.452Z,45.53
2022-11-16T07:37:26.557Z,37.25
2022-11-16T07:39:53.672Z,36.90
2022-11-16T07:42:20.384Z,37.78
2022-11-16T07:44:47.104Z,39.55
2022-11-16T07:47:13.721Z,38.22
2022-11-16T07:49:40.425Z,32.42
2022-11-16T07:52:10.371Z,27.58
2022-11-16T07:54:37.443Z,18.70
2022-11-16T07:57:04.380Z,25.70
2022-11-16T07:59:31.106Z,37.38
2022-11-16T08:01:59.499Z,31.23
2022-11-16T08:04:26.404Z,29.92
2022-11-16T08:06:53.195Z,33.63
2022-11-16T08:09:21.780Z,33.60
2022-11-16T08:11:48.603Z,29.70
2022-11-16T08:14:15.779Z,34.78
2022-11-16T08:16:42.594Z,31.98
2022-11-16T08:19:10.312Z,27.25
2022-11-16T08:21:37.106Z,22.65
2022-11-16T08:24:03.901Z,21.92
2022-11-16T08:26:30.823Z,20.38
2022-11-16T08:28:57.719Z,14.95
2022-11-16T08:31:28.745Z,13.27
2022-11-16T08:33:56.742Z,14.63
2022-11-16T08:36:24.021Z,11.45
2022-11-16T08:38:51.731Z,12.45
2022-11-16T08:41:20.038Z,10.15
2022-11-16T08:43:50.883Z,8.35
2022-11-16T08:46:17.844Z,8.52
2022-11-16T08:48:46.119Z,6.20
2022-11-16T08:53:59.592Z,6.38
2022-11-16T08:56:27.410Z,6.70
2022-11-16T08:58:58.416Z,6.13
2022-11-16T09:01:28.060Z,7.57
2022-11-16T09:03:55.141Z,9.45
2022-11-16T09:06:23.711Z,10.25
2022-11-16T09:08:50.841Z,10.07
2022-11-16T09:11:20.192Z,10.75
2022-11-16T09:16:32.604Z,8.40
2022-11-16T09:18:59.301Z,7.30
2022-11-16T09:21:28.475Z,7.70
2022-11-16T09:23:57.464Z,7.25
2022-11-16T09:26:26.313Z,6.82
2022-11-16T09:28:59.114Z,7.50
2022-11-16T09:31:27.592Z,6.88
2022-11-16T09:33:58.465Z,6.28
2022-11-16T09:36:29.194Z,11.15
2022-11-16T09:42:02.544Z,4.97
2022-11-16T09:44:59.951Z,6.32
2022-11-16T09:47:57.629Z,5.35
2022-11-16T09:53:34.501Z,5.53
2022-11-16T09:56:15.498Z,3.30
2022-11-16T09:58:56.403Z,4.00
2022-11-16T10:01:34.441Z,2.75
2022-11-16T10:04:17.731Z,3.30
2022-11-16T10:06:57.336Z,3.50
2022-11-16T10:09:25.951Z,4.20
2022-11-16T10:12:14.159Z,3.90
2022-11-16T10:14:43.819Z,4.65
2022-11-16T10:17:48.248Z,4.15
2022-11-16T10:20:30.720Z,4.93
2022-11-16T10:23:16.094Z,4.18
2022-11-16T10:25:44.773Z,4.47
2022-11-16T10:28:27.789Z,4.13
2022-11-16T10:31:07.089Z,4.55
2022-11-16T10:33:37.217Z,4.45
2022-11-16T10:36:14.837Z,4.78
2022-11-16T10:38:43.427Z,4.78
2022-11-16T10:41:30.627Z,4.10
2022-11-16T10:43:59.450Z,4.55
2022-11-16T10:46:46.917Z,4.32
2022-11-16T10:49:25.317Z,5.00
2022-11-16T10:51:51.954Z,4.63
2022-11-16T10:54:18.789Z,4.80
2022-11-16T10:56:49.731Z,4.47
2022-11-16T10:59:19.691Z,4.35
2022-11-16T11:01:51.572Z,4.78
2022-11-16T11:04:23.025Z,4.43
2022-11-16T11:06:52.891Z,4.90
2022-11-16T11:09:32.283Z,4.90
2022-11-16T11:12:34.523Z,4.43
2022-11-16T11:15:01.187Z,4.90
2022-11-16T11:17:29.910Z,5.10
2022-11-16T11:20:03.901Z,5.10
2022-11-16T11:22:33.107Z,5.45
2022-11-16T11:25:03.343Z,5.00
2022-11-16T11:27:34.845Z,4.88
2022-11-16T11:30:01.955Z,5.50
2022-11-16T11:32:40.645Z,5.30
2022-11-16T11:35:27.098Z,6.00
2022-11-16T11:37:56.378Z,5.22
2022-11-16T11:43:25.319Z,5.18
2022-11-16T11:45:57.958Z,4.95
2022-11-16T11:48:29.884Z,4.88
2022-11-16T11:51:02.977Z,4.63
2022-11-16T11:53:52.085Z,5.10
2022-11-16T11:56:19.552Z,4.97
2022-11-16T11:58:48.118Z,6.22
2022-11-16T12:01:37.681Z,5.22
2022-11-16T12:04:44.931Z,4.90
2022-11-16T12:07:48.792Z,5.82
2022-11-16T12:10:43.060Z,5.55
2022-11-16T12:13:47.366Z,5.20
2022-11-16T12:16:20.375Z,6.20
2022-11-16T12:19:04.882Z,6.05
2022-11-16T12:22:28.158Z,8.13
2022-11-16T12:25:33.091Z,6.40
2022-11-16T12:28:30.999Z,5.65
2022-11-16T12:31:34.956Z,5.40
2022-11-16T12:34:19.946Z,6.60
2022-11-16T12:37:04.808Z,5.95
2022-11-16T12:39:44.550Z,4.57
2022-11-16T12:42:17.269Z,5.75
2022-11-16T12:45:16.316Z,6.32
2022-11-16T12:48:03.826Z,5.88
2022-11-16T12:51:06.708Z,6.53
2022-11-16T12:53:42.298Z,7.43
2022-11-16T12:56:31.552Z,6.30
2022-11-16T12:59:36.702Z,5.90
2022-11-16T13:02:03.313Z,5.45
2022-11-16T13:04:42.503Z,7.38
2022-11-16T13:07:12.449Z,7.75
2022-11-16T13:09:45.987Z,7.03
2022-11-16T13:12:19.795Z,7.35
2022-11-16T13:14:48.776Z,7.25
2022-11-16T13:17:25.568Z,7.80
2022-11-16T13:20:11.711Z,6.20
2022-11-16T13:22:47.073Z,6.03
2022-11-16T13:25:30.652Z,6.50
2022-11-16T13:28:07.855Z,7.10
2022-11-16T13:31:13.279Z,6.78
2022-11-16T13:33:53.587Z,6.57
2022-11-16T13:36:32.656Z,6.57
2022-11-16T13:38:59.431Z,6.93
2022-11-16T13:41:35.812Z,6.25
2022-11-16T13:44:05.928Z,6.57
2022-11-16T13:46:56.915Z,6.32
2022-11-16T13:49:27.034Z,5.95
2022-11-16T13:52:06.837Z,7.75
2022-11-16T13:54:52.829Z,10.20
2022-11-16T13:57:22.192Z,8.30
2022-11-16T13:59:52.714Z,6.57
2022-11-16T14:02:28.743Z,6.88
2022-11-16T14:04:58.442Z,7.18
2022-11-16T14:07:34.871Z,7.80
2022-11-16T14:10:02.587Z,8.02
2022-11-16T14:12:38.533Z,8.07
2022-11-16T14:15:19.180Z,8.70
2022-11-16T14:18:22.724Z,7.05
2022-11-16T14:20:58.450Z,6.95
2022-11-16T14:24:06.463Z,9.77
2022-11-16T14:26:51.574Z,6.53
2022-11-16T14:29:44.691Z,7.63
2022-11-16T14:32:22.550Z,8.40
2022-11-16T14:34:52.405Z,6.93
2022-11-16T14:37:24.474Z,8.73
2022-11-16T14:39:53.662Z,8.98
2022-11-16T14:42:25.001Z,8.95
2022-11-16T14:45:00.976Z,12.20
2022-11-16T14:47:30.684Z,8.45
2022-11-16T14:49:57.685Z,13.32
2022-11-16T14:52:47.627Z,12.73
2022-11-16T14:55:25.816Z,10.55
2022-11-16T14:58:20.456Z,11.75
2022-11-16T15:01:02.310Z,16.45
2022-11-16T15:03:34.454Z,7.90
2022-11-16T15:06:02.972Z,13.55
2022-11-16T15:08:43.355Z,13.25
2022-11-16T15:11:22.494Z,11.10
2022-11-16T15:13:49.898Z,8.70
2022-11-16T15:16:19.378Z,14.55
2022-11-16T15:19:02.793Z,14.90
2022-11-16T15:21:29.606Z,13.85
2022-11-16T15:26:43.386Z,11.23
2022-11-16T15:29:16.891Z,14.35
2022-11-16T15:31:44.226Z,11.55
2022-11-16T15:34:17.427Z,15.18
2022-11-16T15:36:44.129Z,15.35
2022-11-16T15:39:20.205Z,15.18
2022-11-16T15:41:47.156Z,11.15
2022-11-16T15:44:17.850Z,23.00
2022-11-16T15:46:51.874Z,14.35
2022-11-16T15:49:31.313Z,16.25
2022-11-16T15:51:59.684Z,38.78
2022-11-16T15:54:51.649Z,30.85
2022-11-16T15:57:20.313Z,15.32
2022-11-16T15:59:56.357Z,19.80
2022-11-16T16:02:27.607Z,18.65
2022-11-16T16:04:54.341Z,19.73
2022-11-16T16:07:41.644Z,13.25
2022-11-16T16:10:24.571Z,26.90
2022-11-16T16:13:01.684Z,19.33
2022-11-16T16:15:40.208Z,14.13
2022-11-16T16:18:36.732Z,25.02
2022-11-16T16:21:03.501Z,27.40
2022-11-16T16:23:30.136Z,15.05
2022-11-16T16:25:56.769Z,27.48
2022-11-16T16:28:23.380Z,22.75
2022-11-16T16:30:53.191Z,19.05
2022-11-16T16:33:22.048Z,17.85
2022-11-16T16:35:50.941Z,22.90
2022-11-16T16:38:18.237Z,19.10
2022-11-16T16:40:44.900Z,16.30
2022-11-16T16:43:11.755Z,17.83
2022-11-16T16:45:41.890Z,19.92
2022-11-16T16:48:09.717Z,20.27
2022-11-16T16:50:36.930Z,18.30
2022-11-16T16:53:03.767Z,18.50
2022-11-16T16:55:35.723Z,21.17
2022-11-16T16:58:03.857Z,24.52
2022-11-16T17:00:30.736Z,17.20
2022-11-16T17:02:58.548Z,33.60
2022-11-16T17:05:26.357Z,22.88
2022-11-16T17:07:56.414Z,16.48
2022-11-16T17:10:23.689Z,21.83
2022-11-16T17:12:53.628Z,26.10
2022-11-16T17:15:20.977Z,19.05
2022-11-16T17:17:48.051Z,15.70
2022-11-16T17:20:16.393Z,14.52
2022-11-16T17:22:43.443Z,12.40
2022-11-16T17:25:10.630Z,17.85
2022-11-16T17:27:37.343Z,18.45
2022-11-16T17:30:04.636Z,16.85
2022-11-16T17:32:31.532Z,25.30
2022-11-16T17:34:58.193Z,29.02
2022-11-16T17:37:24.827Z,21.55
2022-11-16T17:39:51.577Z,17.55
2022-11-16T17:42:18.246Z,17.40
2022-11-16T17:44:44.927Z,22.33
2022-11-16T17:47:11.752Z,17.17
2022-11-16T17:49:38.427Z,18.77
2022-11-16T17:52:06.353Z,15.52
2022-11-16T17:54:33.079Z,17.58
2022-11-16T17:56:59.895Z,20.33
2022-11-16T17:59:29.400Z,26.15
2022-11-16T18:01:58.055Z,27.25
2022-11-16T18:04:25.354Z,21.52
2022-11-16T18:06:52.657Z,16.17
2022-11-16T18:09:19.407Z,30.77
2022-11-16T18:11:46.197Z,24.38
2022-11-16T18:14:12.795Z,22.25
2022-11-16T18:16:42.454Z,19.35
2022-11-16T18:19:10.131Z,20.50
2022-11-16T18:21:41.417Z,22.20
2022-11-16T18:24:08.810Z,20.70
2022-11-16T18:26:36.178Z,24.25
2022-11-16T18:29:03.004Z,23.23
2022-11-16T18:31:32.850Z,22.38
2022-11-16T18:34:01.080Z,20.98
2022-11-16T18:36:28.033Z,18.45
2022-11-16T18:38:54.855Z,26.95
2022-11-16T18:41:25.158Z,51.00
2022-11-16T18:43:54.556Z,68.90
2022-11-16T18:46:25.708Z,29.10
2022-11-16T18:48:53.185Z,29.75
2022-11-16T18:51:21.790Z,45.85
2022-11-16T18:53:49.256Z,49.70
2022-11-16T18:56:16.744Z,62.80
2022-11-16T18:58:50.378Z,53.65
2022-11-16T19:01:20.791Z,51.75
2022-11-16T19:03:47.733Z,53.72
2022-11-16T19:06:15.662Z,54.67
2022-11-16T19:08:46.858Z,53.80
2022-11-16T19:11:16.981Z,73.03
2022-11-16T19:13:44.637Z,67.18
2022-11-16T19:16:13.642Z,56.10
2022-11-16T19:18:41.208Z,55.25
2022-11-16T19:21:09.141Z,40.55
2022-11-16T19:23:39.944Z,38.40
2022-11-16T19:26:07.367Z,40.35
2022-11-16T19:28:38.340Z,50.22
2022-11-16T19:31:09.853Z,39.58
2022-11-16T19:33:36.975Z,41.75
2022-11-16T19:36:15.005Z,40.03
2022-11-16T19:38:42.031Z,39.72
2022-11-16T19:41:11.121Z,45.50
2022-11-16T19:43:38.894Z,42.28
2022-11-16T19:46:16.616Z,41.40
2022-11-16T19:48:45.021Z,33.55
2022-11-16T19:51:14.708Z,40.65
2022-11-16T19:53:41.469Z,44.58
2022-11-16T19:56:11.140Z,47.15
2022-11-16T19:58:39.089Z,50.90
2022-11-16T20:01:13.055Z,61.20
2022-11-16T20:03:43.200Z,57.53
2022-11-16T20:06:20.753Z,57.92
2022-11-16T20:08:56.099Z,63.47
2022-11-16T20:11:25.236Z,75.53
2022-11-16T20:13:53.904Z,42.63
2022-11-16T20:16:23.442Z,43.30
2022-11-16T20:18:51.284Z,39.40
2022-11-16T20:21:35.924Z,47.10
2022-11-16T20:24:06.712Z,55.60
2022-11-16T20:26:35.178Z,54.17
2022-11-16T20:29:02.043Z,46.38
2022-11-16T20:31:30.789Z,64.15
2022-11-16T20:33:59.553Z,78.78
2022-11-16T20:36:29.485Z,65.13
2022-11-16T20:38:57.669Z,58.95
2022-11-16T20:41:26.466Z,49.00
2022-11-16T20:43:55.162Z,48.88
2022-11-16T20:46:23.942Z,44.33
2022-11-16T20:48:51.020Z,49.85
2022-11-16T20:51:19.773Z,51.35
2022-11-16T20:53:48.215Z,48.45
2022-11-16T20:56:16.505Z,49.75
2022-11-16T20:58:43.634Z,49.65
2022-11-16T21:01:13.453Z,49.03
2022-11-16T21:03:40.745Z,50.53
2022-11-16T21:06:08.830Z,50.03
2022-11-16T21:08:36.857Z,42.17
2022-11-16T21:11:12.156Z,40.63
2022-11-16T21:13:57.921Z,44.90
2022-11-16T21:16:24.976Z,47.85
2022-11-16T21:18:51.676Z,38.92
2022-11-16T21:21:18.328Z,41.03
2022-11-16T21:23:51.306Z,42.70
2022-11-16T21:26:23.443Z,40.13
2022-11-16T21:28:50.470Z,40.53
2022-11-16T21:31:19.797Z,48.10
2022-11-16T21:33:49.669Z,46.03
2022-11-16T21:36:18.959Z,49.45
2022-11-16T21:38:46.448Z,35.90
2022-11-16T21:41:15.205Z,29.65
2022-11-16T21:43:41.931Z,35.40
2022-11-16T21:46:12.071Z,29.65
2022-11-16T21:48:39.267Z,29.98
2022-11-16T21:51:14.470Z,28.65
2022-11-16T21:53:41.251Z,30.80
2022-11-16T21:56:12.515Z,36.35
2022-11-16T21:58:40.228Z,32.25
2022-11-16T22:01:07.309Z,33.33
2022-11-16T22:03:34.587Z,34.15
2022-11-16T22:06:22.312Z,56.00
2022-11-16T22:08:49.280Z,51.08
2022-11-16T22:11:16.485Z,40.90
2022-11-16T22:13:43.964Z,43.00
2022-11-16T22:16:15.299Z,41.08
2022-11-16T22:18:42.172Z,36.38
2022-11-16T22:21:10.254Z,32.78
2022-11-16T22:23:38.108Z,46.17
2022-11-16T22:26:07.529Z,51.78
2022-11-16T22:28:35.670Z,50.97
2022-11-16T22:31:04.316Z,55.40
2022-11-16T22:33:32.064Z,49.03
2022-11-16T22:35:59.025Z,48.92
2022-11-16T22:38:25.755Z,46.65
2022-11-16T22:40:54.335Z,46.58
2022-11-16T22:43:23.007Z,22.88
2022-11-16T22:45:50.526Z,21.85
2022-11-16T22:48:17.706Z,18.40
2022-11-16T22:50:44.452Z,17.00
2022-11-16T22:53:11.247Z,13.02
2022-11-16T22:55:38.976Z,11.18
2022-11-16T22:58:06.098Z,10.07
2022-11-16T23:00:38.958Z,11.77
2022-11-16T23:03:08.646Z,10.85
2022-11-16T23:05:35.419Z,12.82
2022-11-16T23:08:02.020Z,9.85
2022-11-16T23:10:29.041Z,8.85
2022-11-16T23:13:14.284Z,11.35
2022-11-16T23:15:50.021Z,9.93
2022-11-16T23:18:17.679Z,9.73
2022-11-16T23:21:02.767Z,8.07
2022-11-16T23:23:49.241Z,9.50
2022-11-16T23:26:42.170Z,10.45
2022-11-16T23:29:10.632Z,10.40
2022-11-16T23:31:38.165Z,12.05
2022-11-16T23:34:05.317Z,10.95
2022-11-16T23:36:32.029Z,12.50
2022-11-16T23:38:58.739Z,26.85
2022-11-16T23:41:43.850Z,18.23
2022-11-16T23:44:10.570Z,10.85
2022-11-16T23:46:38.502Z,9.15
2022-11-16T23:49:05.274Z,9.13
2022-11-16T23:51:31.924Z,10.73
2022-11-16T23:53:58.635Z,11.82
2022-11-16T23:56:25.374Z,10.23
2022-11-16T23:58:56.343Z,10.25
